Time;durP1;ratioP1;P1;durP2;ratioP2;P2;SDS_P1;SDS_P2;PMS_P1;PMS_P2;Temp;Humidity;BMP_temperature;BMP_pressure;BME280_temperature;BME280_humidity;BME280_pressure;Samples;Min_cycle;Max_cycle;Signal;HPM_P1;HPM_P2
2022/06/18 00:00:34;;;;;;;;;;;;;;;;;;5067218;28;19912;-78
2022/06/18 00:03:00;;;;;;;;;;;;;;;;;;5058203;28;19982;-78
2022/06/18 00:05:35;;;;;;;;;;;;;;;;;;5036772;28;19916;-78
2022/06/18 00:08:00;;;;;;;;;;;;;;;;;;5061392;28;19919;-78
2022/06/18 00:10:26;;;;;;;;;;;;;;;;;;5109452;28;19919;-78
2022/06/18 00:15:35;;;;;;;;;;;;;;;;;;5079619;28;19913;-76
2022/06/18 00:18:01;;;;;;;;;;;;;;;;;;5091786;28;19920;-78
2022/06/18 00:20:26;;;;;;;;;;;;;;;;;;5046826;28;19913;-79
2022/06/18 00:22:52;;;;;;;;;;;;;;;;;;5096142;28;19912;-80
2022/06/18 00:25:20;;;;;;;;;;;;;;;;;;5113013;28;20370;-78
2022/06/18 00:27:46;;;;;;;;;;;;;;;;;;5097370;28;19913;-79
2022/06/18 00:30:13;;;;;;;;;;;;;;;;;;5058274;28;20379;-78
2022/06/18 00:32:39;;;;;;;;;;;;;;;;;;5082461;28;19923;-79
2022/06/18 00:35:04;;;;;;;;;;;;;;;;;;5083710;28;20011;-79
2022/06/18 00:37:29;;;;;;;;;;;;;;;;;;5052513;28;20393;-80
2022/06/18 00:39:55;;;;;;;;;;;;;;;;;;5094788;28;19912;-79
2022/06/18 00:42:20;;;;;;;;;;;;;;;;;;5080327;28;19965;-78
2022/06/18 00:44:53;;;;;;;;;;;;;;;;;;5074770;28;19923;-77
2022/06/18 00:47:19;;;;;;;;;;;;;;;;;;5063431;28;19912;-78
2022/06/18 00:49:45;;;;;;;;;;;;;;;;;;5074051;28;19919;-78
2022/06/18 00:52:11;;;;;;;;;;;;;;;;;;5074357;28;19912;-78
2022/06/18 00:54:36;;;;;;;;;;;;;;;;;;5063907;28;19919;-78
2022/06/18 00:57:01;;;;;;;;;;;;;;;;;;5093093;28;19908;-78
2022/06/18 00:59:27;;;;;;;;;;;;;;;;;;5089924;28;20356;-78
2022/06/18 01:01:53;;;;;;;;;;;;;;;;;;5092572;22;19936;-83
2022/06/18 01:04:44;;;;;;;;;;;;;;;;;;5013704;28;19917;-85
2022/06/18 01:07:13;;;;;;;;;;;;;;;;;;5029159;28;19924;-85
2022/06/18 01:09:38;;;;;;;;;;;;;;;;;;5036489;28;20383;-84
2022/06/18 01:12:04;;;;;;;;;;;;;;;;;;5000262;28;19913;-85
2022/06/18 01:14:29;;;;;;;;;;;;;;;;;;5025798;28;19917;-84
2022/06/18 01:16:55;;;;;;;;;;;;;;;;;;5026198;28;19913;-84
2022/06/18 01:19:23;;;;;;;;;;;;;;;;;;5018965;28;19935;-84
2022/06/18 01:22:05;;;;;;;;;;;;;;;;;;5016245;28;19920;-84
2022/06/18 01:24:31;;;;;;;;;;;;;;;;;;5004169;28;19917;-85
2022/06/18 01:26:56;;;;;;;;;;;;;;;;;;5016352;28;19919;-84
2022/06/18 01:29:22;;;;;;;;;;;;;;;;;;5042202;28;19927;-84
2022/06/18 01:31:47;;;;;;;;;;;;;;;;;;5021926;28;19952;-86
2022/06/18 01:34:13;;;;;;;;;;;;;;;;;;5034766;28;19913;-85
2022/06/18 01:36:42;;;;;;;;;;;;;;;;;;5018245;28;19916;-85
2022/06/18 01:39:17;;;;;;;;;;;;;;;;;;5029164;28;19913;-83
2022/06/18 01:41:50;;;;;;;;;;;;;;;;;;5000773;28;19961;-85
2022/06/18 01:44:20;;;;;;;;;;;;;;;;;;5016193;28;20368;-86
2022/06/18 01:46:46;;;;;;;;;;;;;;;;;;5011921;28;19924;-86
2022/06/18 01:49:14;;;;;;;;;;;;;;;;;;5013203;28;20372;-86
2022/06/18 01:51:40;;;;;;;;;;;;;;;;;;5035368;28;19922;-85
2022/06/18 01:54:06;;;;;;;;;;;;;;;;;;5018626;28;20383;-84
2022/06/18 01:56:31;;;;;;;;;;;;;;;;;;5012329;28;19913;-84
2022/06/18 01:58:57;;;;;;;;;;;;;;;;;;5009882;28;19920;-86
2022/06/18 02:01:31;;;;;;;;;;;;;;;;;;5003473;28;20003;-85
2022/06/18 02:03:56;;;;;;;;;;;;;;;;;;5007143;28;20008;-85
2022/06/18 02:06:22;;;;;;;;;;;;;;;;;;5005453;28;19963;-84
2022/06/18 02:08:47;;;;;;;;;;;;;;;;;;5035616;28;19913;-84
2022/06/18 02:11:16;;;;;;;;;;;;;;;;;;5006550;28;19916;-86
2022/06/18 02:13:44;;;;;;;;;;;;;;;;;;4999520;28;19912;-84
2022/06/18 02:16:09;;;;;;;;;;;;;;;;;;5036979;28;20664;-85
2022/06/18 02:18:41;;;;;;;;;;;;;;;;;;5017143;28;19913;-84
2022/06/18 02:21:07;;;;;;;;;;;;;;;;;;5048602;28;19972;-85
2022/06/18 02:23:33;;;;;;;;;;;;;;;;;;5040267;28;19967;-84
2022/06/18 02:25:59;;;;;;;;;;;;;;;;;;5026554;28;20447;-84
2022/06/18 02:28:24;;;;;;;;;;;;;;;;;;5025833;28;19913;-84
2022/06/18 02:30:50;;;;;;;;;;;;;;;;;;5050474;28;19956;-85
2022/06/18 02:33:15;;;;;;;;;;;;;;;;;;5036073;28;19913;-84
2022/06/18 02:35:41;;;;;;;;;;;;;;;;;;5034965;28;19963;-84
2022/06/18 02:38:07;;;;;;;;;;;;;;;;;;5013134;28;19913;-85
2022/06/18 02:40:32;;;;;;;;;;;;;;;;;;5036887;28;19985;-84
2022/06/18 02:42:59;;;;;;;;;;;;;;;;;;5017957;28;19949;-83
2022/06/18 02:45:26;;;;;;;;;;;;;;;;;;5029708;28;19921;-83
2022/06/18 02:47:52;;;;;;;;;;;;;;;;;;5067287;28;19966;-85
2022/06/18 02:50:18;;;;;;;;;;;;;;;;;;5016393;28;19913;-83
2022/06/18 02:52:43;;;;;;;;;;;;;;;;;;5001256;28;20051;-83
2022/06/18 02:55:10;;;;;;;;;;;;;;;;;;5038358;28;19919;-84
2022/06/18 02:57:35;;;;;;;;;;;;;;;;;;5017915;28;19913;-84
2022/06/18 03:00:01;;;;;;;;;;;;;;;;;;5035429;28;19916;-84
2022/06/18 03:02:27;;;;;;;;;;;;;;;;;;5012687;28;19920;-82
2022/06/18 03:04:56;;;;;;;;;;;;;;;;;;4993923;28;19917;-84
2022/06/18 03:07:21;;;;;;;;;;;;;;;;;;5029734;28;19920;-84
2022/06/18 03:12:34;;;;;;;;;;;;;;;;;;5018263;28;19919;-85
2022/06/18 03:15:00;;;;;;;;;;;;;;;;;;5034876;28;19909;-84
2022/06/18 03:17:26;;;;;;;;;;;;;;;;;;5020683;28;19920;-84
2022/06/18 03:19:52;;;;;;;;;;;;;;;;;;4989400;28;19913;-83
2022/06/18 03:22:17;;;;;;;;;;;;;;;;;;5037952;28;19940;-83
2022/06/18 03:24:43;;;;;;;;;;;;;;;;;;5040257;28;20379;-84
2022/06/18 03:27:08;;;;;;;;;;;;;;;;;;5001516;28;19909;-85
2022/06/18 03:29:37;;;;;;;;;;;;;;;;;;5018454;28;20050;-84
2022/06/18 03:32:03;;;;;;;;;;;;;;;;;;5001093;28;19920;-84
2022/06/18 03:34:30;;;;;;;;;;;;;;;;;;5028220;28;20358;-85
2022/06/18 03:36:56;;;;;;;;;;;;;;;;;;4987765;28;20060;-84
2022/06/18 03:39:22;;;;;;;;;;;;;;;;;;5006418;28;20368;-84
2022/06/18 03:41:48;;;;;;;;;;;;;;;;;;5051108;28;20004;-85
2022/06/18 03:44:14;;;;;;;;;;;;;;;;;;5017068;28;20439;-85
2022/06/18 03:46:48;;;;;;;;;;;;;;;;;;4995883;28;19919;-85
2022/06/18 03:49:20;;;;;;;;;;;;;;;;;;5001709;28;19913;-86
2022/06/18 03:51:46;;;;;;;;;;;;;;;;;;5053118;28;20003;-85
2022/06/18 03:54:17;;;;;;;;;;;;;;;;;;5021149;28;19913;-85
2022/06/18 03:56:43;;;;;;;;;;;;;;;;;;5010299;28;19959;-83
2022/06/18 03:59:09;;;;;;;;;;;;;;;;;;5009759;28;19963;-85
2022/06/18 04:01:40;;;;;;;;;;;;;;;;;;5018418;28;19913;-83
2022/06/18 04:04:13;;;;;;;;;;;;;;;;;;5006302;28;19967;-84
2022/06/18 04:06:42;;;;;;;;;;;;;;;;;;5037295;28;19917;-85
2022/06/18 04:09:53;;;;;;;;;;;;;;;;;;4959179;28;20001;-85
2022/06/18 04:12:23;;;;;;;;;;;;;;;;;;5016531;28;20000;-84
2022/06/18 04:15:08;;;;;;;;;;;;;;;;;;5029141;28;19913;-84
2022/06/18 04:17:49;;;;;;;;;;;;;;;;;;5019494;28;19919;-83
2022/06/18 04:20:14;;;;;;;;;;;;;;;;;;5005921;28;19913;-85
2022/06/18 04:22:40;;;;;;;;;;;;;;;;;;5017346;28;19913;-83
2022/06/18 04:25:12;;;;;;;;;;;;;;;;;;5025849;28;19966;-86
2022/06/18 04:27:37;;;;;;;;;;;;;;;;;;5015464;28;19913;-84
2022/06/18 04:30:03;;;;;;;;;;;;;;;;;;5017843;28;19967;-85
2022/06/18 04:32:54;;;;;;;;;;;;;;;;;;5026528;28;19913;-85
2022/06/18 04:35:20;;;;;;;;;;;;;;;;;;4998121;28;20287;-85
2022/06/18 04:38:04;;;;;;;;;;;;;;;;;;5019697;28;19913;-85
2022/06/18 04:40:40;;;;;;;;;;;;;;;;;;4994242;28;20378;-85
2022/06/18 04:43:16;;;;;;;;;;;;;;;;;;5018201;28;19913;-85
2022/06/18 04:45:46;;;;;;;;;;;;;;;;;;5022381;28;19921;-85
2022/06/18 04:48:17;;;;;;;;;;;;;;;;;;5004028;28;20376;-84
2022/06/18 04:50:43;;;;;;;;;;;;;;;;;;5013867;28;19920;-84
2022/06/18 04:53:10;;;;;;;;;;;;;;;;;;5000722;28;19913;-82
2022/06/18 04:55:36;;;;;;;;;;;;;;;;;;5050622;28;19916;-84
2022/06/18 04:58:04;;;;;;;;;;;;;;;;;;5019442;28;19913;-84
2022/06/18 05:00:37;;;;;;;;;;;;;;;;;;5030062;28;20363;-82
2022/06/18 05:03:25;;;;;;;;;;;;;;;;;;5007088;28;20388;-84
2022/06/18 05:06:00;;;;;;;;;;;;;;;;;;5033021;28;19916;-84
2022/06/18 05:08:36;;;;;;;;;;;;;;;;;;5024503;28;19913;-84
2022/06/18 05:11:10;;;;;;;;;;;;;;;;;;5042049;28;20058;-85
2022/06/18 05:13:44;;;;;;;;;;;;;;;;;;5001584;28;19959;-86
2022/06/18 05:16:30;;;;;;;;;;;;;;;;;;4999160;28;19914;-83
2022/06/18 05:18:59;;;;;;;;;;;;;;;;;;5026112;28;20060;-85
2022/06/18 05:21:27;;;;;;;;;;;;;;;;;;5031609;28;20287;-86
2022/06/18 05:23:55;;;;;;;;;;;;;;;;;;5016459;28;19913;-84
2022/06/18 05:26:22;;;;;;;;;;;;;;;;;;5022235;28;19913;-85
2022/06/18 05:28:48;;;;;;;;;;;;;;;;;;5000180;28;20043;-86
2022/06/18 05:31:14;;;;;;;;;;;;;;;;;;5018444;28;20012;-83
2022/06/18 05:33:40;;;;;;;;;;;;;;;;;;5002236;28;19917;-83
2022/06/18 05:36:06;;;;;;;;;;;;;;;;;;5032805;28;19999;-84
2022/06/18 05:38:32;;;;;;;;;;;;;;;;;;4990984;28;19916;-83
2022/06/18 05:40:57;;;;;;;;;;;;;;;;;;5010446;28;20395;-84
2022/06/18 05:43:29;;;;;;;;;;;;;;;;;;4999279;28;19963;-83
2022/06/18 05:45:55;;;;;;;;;;;;;;;;;;5014773;28;19967;-84
2022/06/18 05:48:20;;;;;;;;;;;;;;;;;;5004381;28;20376;-84
2022/06/18 05:50:46;;;;;;;;;;;;;;;;;;5010355;28;20382;-84
2022/06/18 05:53:19;;;;;;;;;;;;;;;;;;5014205;28;20394;-85
2022/06/18 05:55:58;;;;;;;;;;;;;;;;;;5033451;28;19913;-85
2022/06/18 05:58:41;;;;;;;;;;;;;;;;;;5009630;28;19935;-84
2022/06/18 06:01:15;;;;;;;;;;;;;;;;;;5006816;28;19921;-83
2022/06/18 06:03:41;;;;;;;;;;;;;;;;;;5001973;28;20365;-84
2022/06/18 06:06:06;;;;;;;;;;;;;;;;;;5027009;28;19917;-83
2022/06/18 06:08:38;;;;;;;;;;;;;;;;;;5015856;28;19913;-84
2022/06/18 06:13:48;;;;;;;;;;;;;;;;;;5018441;28;19917;-84
2022/06/18 06:16:17;;;;;;;;;;;;;;;;;;5048079;28;19916;-84
2022/06/18 06:18:42;;;;;;;;;;;;;;;;;;5023522;28;19913;-84
2022/06/18 06:21:08;;;;;;;;;;;;;;;;;;5012990;28;19917;-84
2022/06/18 06:23:33;;;;;;;;;;;;;;;;;;5020661;28;19920;-84
2022/06/18 06:25:58;;;;;;;;;;;;;;;;;;5036039;28;20327;-84
2022/06/18 06:28:30;;;;;;;;;;;;;;;;;;5046917;28;20368;-86
2022/06/18 06:31:02;;;;;;;;;;;;;;;;;;4994235;28;20279;-84
2022/06/18 06:33:28;;;;;;;;;;;;;;;;;;4998180;28;19942;-84
2022/06/18 06:35:55;;;;;;;;;;;;;;;;;;5045925;28;19912;-84
2022/06/18 06:38:20;;;;;;;;;;;;;;;;;;5042014;28;20003;-84
2022/06/18 06:40:46;;;;;;;;;;;;;;;;;;5052361;28;20274;-83
2022/06/18 06:43:12;;;;;;;;;;;;;;;;;;5014274;28;19935;-85
2022/06/18 06:45:38;;;;;;;;;;;;;;;;;;5002170;28;20299;-85
2022/06/18 06:48:03;;;;;;;;;;;;;;;;;;5048886;28;19957;-84
2022/06/18 06:50:28;;;;;;;;;;;;;;;;;;5020954;28;19912;-84
2022/06/18 06:52:54;;;;;;;;;;;;;;;;;;5022760;28;19913;-84
2022/06/18 06:58:03;;;;;;;;;;;;;;;;;;5024069;28;19949;-84
2022/06/18 07:00:29;;;;;;;;;;;;;;;;;;5038887;28;19920;-83
2022/06/18 07:02:54;;;;;;;;;;;;;;;;;;5031513;22;19972;-78
2022/06/18 07:05:20;;;;;;;;;;;;;;;;;;5008150;28;20412;-77
2022/06/18 07:07:46;;;;;;;;;;;;;;;;;;4985011;28;19920;-77
2022/06/18 07:10:15;;;;;;;;;;;;;;;;;;4979597;28;19925;-77
2022/06/18 07:12:44;;;;;;;;;;;;;;;;;;5018834;28;19920;-77
2022/06/18 07:15:13;;;;;;;;;;;;;;;;;;4992407;28;19913;-77
2022/06/18 07:17:41;;;;;;;;;;;;;;;;;;5043388;28;19913;-78
2022/06/18 07:20:06;;;;;;;;;;;;;;;;;;5018257;28;19916;-77
2022/06/18 07:22:33;;;;;;;;;;;;;;;;;;5018208;28;20054;-78
2022/06/18 07:25:00;;;;;;;;;;;;;;;;;;5026420;28;20008;-78
2022/06/18 07:27:30;;;;;;;;;;;;;;;;;;4996753;28;19921;-79
2022/06/18 07:29:56;;;;;;;;;;;;;;;;;;5015307;28;19916;-78
2022/06/18 07:32:31;;;;;;;;;;;;;;;;;;4994785;28;19996;-78
2022/06/18 07:34:57;;;;;;;;;;;;;;;;;;5014732;28;19924;-77
2022/06/18 07:37:23;;;;;;;;;;;;;;;;;;4995193;28;19913;-79
2022/06/18 07:39:49;;;;;;;;;;;;;;;;;;5015277;28;19996;-79
2022/06/18 07:42:14;;;;;;;;;;;;;;;;;;5013793;28;20024;-78
2022/06/18 07:44:40;;;;;;;;;;;;;;;;;;5000330;28;19968;-80
2022/06/18 07:47:05;;;;;;;;;;;;;;;;;;5028050;28;19917;-81
2022/06/18 07:49:31;;;;;;;;;;;;;;;;;;5035498;28;19983;-78
2022/06/18 07:51:56;;;;;;;;;;;;;;;;;;5002041;28;19964;-78
2022/06/18 07:54:22;;;;;;;;;;;;;;;;;;5028228;28;19956;-79
2022/06/18 07:56:48;;;;;;;;;;;;;;;;;;5023254;28;20356;-79
2022/06/18 07:59:15;;;;;;;;;;;;;;;;;;4995373;28;19917;-79
2022/06/18 08:01:41;;;;;;;;;;;;;;;;;;5012696;28;19914;-79
2022/06/18 08:04:07;;;;;;;;;;;;;;;;;;5018831;28;19917;-78
2022/06/18 08:06:32;;;;;;;;;;;;;;;;;;5033597;28;19924;-78
2022/06/18 08:08:57;;;;;;;;;;;;;;;;;;4988224;28;20357;-78
2022/06/18 08:11:25;;;;;;;;;;;;;;;;;;5011822;28;20281;-79
2022/06/18 08:13:50;;;;;;;;;;;;;;;;;;5017417;28;20198;-77
2022/06/18 08:16:16;;;;;;;;;;;;;;;;;;5029420;28;19925;-78
2022/06/18 08:18:42;;;;;;;;;;;;;;;;;;5020108;28;19916;-79
2022/06/18 08:21:07;;;;;;;;;;;;;;;;;;5013696;28;20017;-78
2022/06/18 08:23:33;;;;;;;;;;;;;;;;;;5004116;28;19953;-79
2022/06/18 08:26:02;;;;;;;;;;;;;;;;;;5029279;28;19960;-78
2022/06/18 08:28:33;;;;;;;;;;;;;;;;;;5004124;28;19916;-79
2022/06/18 08:30:59;;;;;;;;;;;;;;;;;;5022523;28;19913;-79
2022/06/18 08:33:24;;;;;;;;;;;;;;;;;;5023402;28;19921;-77
2022/06/18 08:35:51;;;;;;;;;;;;;;;;;;5002140;28;19920;-80
2022/06/18 08:38:17;;;;;;;;;;;;;;;;;;4977149;28;19914;-79
2022/06/18 08:40:46;;;;;;;;;;;;;;;;;;4993774;28;20027;-78
2022/06/18 08:43:12;;;;;;;;;;;;;;;;;;5013043;28;19913;-77
2022/06/18 08:45:37;;;;;;;;;;;;;;;;;;5012155;28;19962;-78
2022/06/18 08:48:03;;;;;;;;;;;;;;;;;;5017234;28;19909;-79
2022/06/18 08:50:28;;;;;;;;;;;;;;;;;;5027356;28;19964;-78
2022/06/18 08:52:54;;;;;;;;;;;;;;;;;;5008009;28;19936;-78
2022/06/18 08:55:20;;;;;;;;;;;;;;;;;;4982858;28;19984;-78
2022/06/18 08:57:46;;;;;;;;;;;;;;;;;;5000164;28;19973;-78
2022/06/18 09:00:18;;;;;;;;;;;;;;;;;;4991956;28;20388;-80
2022/06/18 09:02:43;;;;;;;;;;;;;;;;;;5018672;28;19967;-79
2022/06/18 09:05:09;;;;;;;;;;;;;;;;;;4989279;28;19917;-79
2022/06/18 09:07:35;;;;;;;;;;;;;;;;;;5004977;28;20320;-79
2022/06/18 09:10:05;;;;;;;;;;;;;;;;;;5000791;28;19967;-78
2022/06/18 09:12:30;;;;;;;;;;;;;;;;;;5037218;28;20005;-78
2022/06/18 09:14:57;;;;;;;;;;;;;;;;;;4993493;28;20039;-78
2022/06/18 09:17:22;;;;;;;;;;;;;;;;;;5021772;28;20257;-79
2022/06/18 09:19:48;;;;;;;;;;;;;;;;;;5032216;28;20350;-79
2022/06/18 09:22:13;;;;;;;;;;;;;;;;;;4988226;28;19913;-78
2022/06/18 09:24:42;;;;;;;;;;;;;;;;;;5008404;28;19929;-79
2022/06/18 09:27:07;;;;;;;;;;;;;;;;;;5043026;28;20308;-80
2022/06/18 09:29:33;;;;;;;;;;;;;;;;;;5019775;28;20292;-79
2022/06/18 09:31:58;;;;;;;;;;;;;;;;;;5031478;28;20323;-81
2022/06/18 09:34:24;;;;;;;;;;;;;;;;;;5038856;28;19912;-78
2022/06/18 09:36:49;;;;;;;;;;;;;;;;;;5009559;28;19978;-81
2022/06/18 09:39:15;;;;;;;;;;;;;;;;;;4997997;28;20336;-79
2022/06/18 09:41:41;;;;;;;;;;;;;;;;;;5014992;28;20346;-80
2022/06/18 09:44:07;;;;;;;;;;;;;;;;;;5001788;28;19912;-80
2022/06/18 09:46:32;;;;;;;;;;;;;;;;;;5011772;28;19940;-80
2022/06/18 09:48:58;;;;;;;;;;;;;;;;;;5025711;28;20340;-79
2022/06/18 09:51:28;;;;;;;;;;;;;;;;;;5000689;28;20245;-79
2022/06/18 09:53:54;;;;;;;;;;;;;;;;;;4996753;28;20454;-79
2022/06/18 09:56:20;;;;;;;;;;;;;;;;;;5002317;28;19913;-79
2022/06/18 09:58:46;;;;;;;;;;;;;;;;;;4991335;28;19917;-79
2022/06/18 10:01:13;;;;;;;;;;;;;;;;;;4999901;28;19917;-80
2022/06/18 10:09:10;;;;;;;;;;;;;;;;;;5039939;28;19913;-79
2022/06/18 10:11:36;;;;;;;;;;;;;;;;;;5042711;28;19924;-80
2022/06/18 10:14:01;;;;;;;;;;;;;;;;;;4998591;28;20552;-79
2022/06/18 10:16:30;;;;;;;;;;;;;;;;;;5017295;28;19913;-79
2022/06/18 10:18:56;;;;;;;;;;;;;;;;;;5008446;28;19917;-78
2022/06/18 10:21:22;;;;;;;;;;;;;;;;;;5038675;28;20004;-79
2022/06/18 10:23:47;;;;;;;;;;;;;;;;;;5048514;28;19956;-83
2022/06/18 10:26:13;;;;;;;;;;;;;;;;;;5003693;28;19917;-80
2022/06/18 10:28:41;;;;;;;;;;;;;;;;;;5041240;28;20003;-80
2022/06/18 10:31:07;;;;;;;;;;;;;;;;;;5024919;28;19913;-78
2022/06/18 10:33:33;;;;;;;;;;;;;;;;;;5036655;28;19913;-81
2022/06/18 10:35:59;;;;;;;;;;;;;;;;;;5030847;28;19960;-79
2022/06/18 10:38:25;;;;;;;;;;;;;;;;;;5003968;28;19912;-81
2022/06/18 10:40:51;;;;;;;;;;;;;;;;;;5025118;28;19920;-82
2022/06/18 10:43:26;;;;;;;;;;;;;;;;;;4988396;28;19917;-81
2022/06/18 10:45:51;;;;;;;;;;;;;;;;;;5005363;28;19917;-80
2022/06/18 10:48:17;;;;;;;;;;;;;;;;;;5048396;28;20319;-81
2022/06/18 10:50:43;;;;;;;;;;;;;;;;;;5031353;28;20391;-80
2022/06/18 10:53:11;;;;;;;;;;;;;;;;;;5006074;28;19935;-81
2022/06/18 10:55:36;;;;;;;;;;;;;;;;;;5030721;28;19956;-81
2022/06/18 10:58:02;;;;;;;;;;;;;;;;;;5015545;28;19991;-82
2022/06/18 11:00:28;;;;;;;;;;;;;;;;;;5015779;28;20004;-83
2022/06/18 11:02:53;;;;;;;;;;;;;;;;;;5031781;28;19924;-81
2022/06/18 11:05:19;;;;;;;;;;;;;;;;;;5028114;28;19917;-82
2022/06/18 11:07:45;;;;;;;;;;;;;;;;;;5035019;28;19913;-79
2022/06/18 11:10:10;;;;;;;;;;;;;;;;;;5047878;28;19967;-78
2022/06/18 11:12:36;;;;;;;;;;;;;;;;;;5004841;28;19967;-79
2022/06/18 11:15:03;;;;;;;;;;;;;;;;;;5006474;28;19913;-79
2022/06/18 11:17:28;;;;;;;;;;;;;;;;;;4999949;28;19921;-79
2022/06/18 11:19:54;;;;;;;;;;;;;;;;;;4999678;28;19913;-78
2022/06/18 11:22:19;;;;;;;;;;;;;;;;;;4998783;28;20277;-80
2022/06/18 11:24:45;;;;;;;;;;;;;;;;;;5009915;28;19921;-80
2022/06/18 11:27:11;;;;;;;;;;;;;;;;;;5026446;28;19962;-80
2022/06/18 11:29:36;;;;;;;;;;;;;;;;;;5018257;28;19913;-79
2022/06/18 11:32:01;;;;;;;;;;;;;;;;;;5030171;28;19927;-79
2022/06/18 11:34:27;;;;;;;;;;;;;;;;;;4999903;28;20256;-81
2022/06/18 11:36:53;;;;;;;;;;;;;;;;;;4998590;28;19921;-80
2022/06/18 11:39:19;;;;;;;;;;;;;;;;;;5010835;28;19912;-78
2022/06/18 11:41:44;;;;;;;;;;;;;;;;;;5031414;28;19962;-80
2022/06/18 11:44:10;;;;;;;;;;;;;;;;;;5017826;28;19944;-79
2022/06/18 11:46:36;;;;;;;;;;;;;;;;;;5026258;28;19924;-79
2022/06/18 11:49:05;;;;;;;;;;;;;;;;;;5024405;28;19924;-79
2022/06/18 11:51:30;;;;;;;;;;;;;;;;;;4999770;28;19913;-79
2022/06/18 11:53:56;;;;;;;;;;;;;;;;;;5018469;28;19917;-79
2022/06/18 11:56:21;;;;;;;;;;;;;;;;;;5031187;28;20003;-80
2022/06/18 11:58:47;;;;;;;;;;;;;;;;;;5014038;28;20303;-80
2022/06/18 12:01:12;;;;;;;;;;;;;;;;;;5010714;28;19939;-78
2022/06/18 12:03:39;;;;;;;;;;;;;;;;;;5004927;28;19917;-79
2022/06/18 12:06:05;;;;;;;;;;;;;;;;;;5006669;28;19993;-78
2022/06/18 12:08:31;;;;;;;;;;;;;;;;;;5017583;28;19944;-79
2022/06/18 12:10:57;;;;;;;;;;;;;;;;;;4987972;28;20388;-79
2022/06/18 12:13:23;;;;;;;;;;;;;;;;;;5017836;28;19909;-79
2022/06/18 12:15:49;;;;;;;;;;;;;;;;;;4986818;28;19913;-79
2022/06/18 12:18:14;;;;;;;;;;;;;;;;;;5015832;28;20049;-78
2022/06/18 12:20:40;;;;;;;;;;;;;;;;;;5008686;28;19912;-81
2022/06/18 12:23:06;;;;;;;;;;;;;;;;;;5044232;28;19917;-83
2022/06/18 12:25:32;;;;;;;;;;;;;;;;;;5003246;28;19928;-82
2022/06/18 12:27:58;;;;;;;;;;;;;;;;;;5037901;28;19909;-78
2022/06/18 13:22:44;;;;;;;;;;;;;;;;;;4988830;28;19984;-86
2022/06/18 13:30:38;;;;;;;;;;;;;;;;;;4982081;28;19917;-85
2022/06/18 13:33:05;;;;;;;;;;;;;;;;;;4993663;28;20055;-85
2022/06/18 13:35:30;;;;;;;;;;;;;;;;;;5012698;23;19929;-79
2022/06/18 13:37:56;;;;;;;;;;;;;;;;;;5030983;28;20425;-80
2022/06/18 13:40:21;;;;;;;;;;;;;;;;;;4983527;28;19920;-79
2022/06/18 13:42:46;;;;;;;;;;;;;;;;;;5010079;28;19917;-79
2022/06/18 13:45:12;;;;;;;;;;;;;;;;;;5008752;28;20359;-78
2022/06/18 13:47:37;;;;;;;;;;;;;;;;;;5006469;28;20499;-80
2022/06/18 13:50:03;;;;;;;;;;;;;;;;;;4975110;28;19952;-79
2022/06/18 13:52:31;;;;;;;;;;;;;;;;;;4999744;28;20418;-80
2022/06/18 13:54:57;;;;;;;;;;;;;;;;;;5029083;28;19917;-80
2022/06/18 13:57:22;;;;;;;;;;;;;;;;;;4997453;28;20418;-79
2022/06/18 13:59:57;;;;;;;;;;;;;;;;;;4969726;28;19914;-80
2022/06/18 14:02:23;;;;;;;;;;;;;;;;;;4999453;28;19978;-78
2022/06/18 14:04:48;;;;;;;;;;;;;;;;;;5011133;28;19970;-77
2022/06/18 14:09:40;;;;;;;;;;;;;;;;;;5041386;28;19925;-77
2022/06/18 14:12:05;;;;;;;;;;;;;;;;;;5057102;28;19919;-78
2022/06/18 14:14:31;;;;;;;;;;;;;;;;;;5051638;28;20329;-80
2022/06/18 14:16:56;;;;;;;;;;;;;;;;;;5045073;28;19923;-77
2022/06/18 14:19:22;;;;;;;;;;;;;;;;;;5043963;28;19955;-78
2022/06/18 14:21:50;;;;;;;;;;;;;;;;;;5060108;22;19925;-83
2022/06/18 14:24:15;;;;;;;;;;;;;;;;;;5030249;28;20395;-81
2022/06/18 14:26:41;;;;;;;;;;;;;;;;;;5024316;28;19920;-82
2022/06/18 14:29:06;;;;;;;;;;;;;;;;;;5019485;28;19956;-82
2022/06/18 14:31:32;;;;;;;;;;;;;;;;;;5022721;28;19913;-83
2022/06/18 14:33:57;;;;;;;;;;;;;;;;;;5013902;28;19920;-83
2022/06/18 14:36:22;;;;;;;;;;;;;;;;;;5015894;28;19959;-83
2022/06/18 14:38:48;;;;;;;;;;;;;;;;;;4993883;28;20032;-84
2022/06/18 14:43:57;;;;;;;;;;;;;;;;;;5005850;28;19976;-86
2022/06/18 14:46:22;;;;;;;;;;;;;;;;;;4996184;28;20379;-85
2022/06/18 14:48:48;;;;;;;;;;;;;;;;;;5018051;28;19913;-85
2022/06/18 14:51:13;;;;;;;;;;;;;;;;;;5011554;28;19933;-83
2022/06/18 14:53:39;;;;;;;;;;;;;;;;;;4997549;28;19949;-83
2022/06/18 14:56:05;;;;;;;;;;;;;;;;;;4997022;28;20241;-81
2022/06/18 14:58:30;;;;;;;;;;;;;;;;;;5014901;28;19913;-84
2022/06/18 15:00:55;;;;;;;;;;;;;;;;;;5005262;28;20195;-84
2022/06/18 15:03:21;;;;;;;;;;;;;;;;;;5010434;28;19913;-79
2022/06/18 15:05:47;;;;;;;;;;;;;;;;;;4984404;28;19980;-82
2022/06/18 15:08:12;;;;;;;;;;;;;;;;;;5001496;28;19921;-79
2022/06/18 15:10:38;;;;;;;;;;;;;;;;;;5000952;28;19913;-84
2022/06/18 15:13:03;;;;;;;;;;;;;;;;;;4994486;28;20298;-83
2022/06/18 15:15:43;;;;;;;;;;;;;;;;;;4992872;28;19913;-82
2022/06/18 15:18:51;;;;;;;;;;;;;;;;;;5021093;28;20388;-82
2022/06/18 15:21:08;;;;;;;;;;;;;;;;;;4995503;28;19914;-81
2022/06/18 15:26:37;;;;;;;;;;;;;;;;;;4995070;28;20331;-81
2022/06/18 15:29:02;;;;;;;;;;;;;;;;;;5012797;28;19920;-81
2022/06/18 15:31:29;;;;;;;;;;;;;;;;;;5019842;28;19914;-83
2022/06/18 15:33:55;;;;;;;;;;;;;;;;;;5005264;28;19986;-83
2022/06/18 15:36:25;;;;;;;;;;;;;;;;;;5008397;28;19920;-84
2022/06/18 15:38:51;;;;;;;;;;;;;;;;;;4991668;28;19913;-82
2022/06/18 15:41:22;;;;;;;;;;;;;;;;;;5006520;28;19923;-81
2022/06/18 15:43:48;;;;;;;;;;;;;;;;;;5020264;28;19914;-81
2022/06/18 15:46:16;;;;;;;;;;;;;;;;;;5006747;28;19932;-83
2022/06/18 15:48:54;;;;;;;;;;;;;;;;;;4990502;28;20047;-83
2022/06/18 15:51:19;;;;;;;;;;;;;;;;;;5004784;28;20384;-82
2022/06/18 15:53:44;;;;;;;;;;;;;;;;;;5011223;28;19913;-82
2022/06/18 15:56:10;;;;;;;;;;;;;;;;;;5012034;28;20015;-83
2022/06/18 15:58:36;;;;;;;;;;;;;;;;;;5021717;28;20023;-85
2022/06/18 16:01:01;;;;;;;;;;;;;;;;;;4997182;28;19920;-83
2022/06/18 16:03:27;;;;;;;;;;;;;;;;;;4999147;28;20383;-85
2022/06/18 16:05:52;;;;;;;;;;;;;;;;;;5029603;28;19940;-85
2022/06/18 16:08:18;;;;;;;;;;;;;;;;;;4985465;28;20007;-84
2022/06/18 16:10:43;;;;;;;;;;;;;;;;;;5007279;28;19952;-84
2022/06/18 16:13:09;;;;;;;;;;;;;;;;;;5034210;28;19921;-83
2022/06/18 16:15:34;;;;;;;;;;;;;;;;;;5006790;28;19979;-84
2022/06/18 16:18:02;;;;;;;;;;;;;;;;;;4999071;28;19925;-84
2022/06/18 16:20:28;;;;;;;;;;;;;;;;;;4997682;28;19914;-84
2022/06/18 16:22:53;;;;;;;;;;;;;;;;;;4997892;28;19917;-80
2022/06/18 16:25:19;;;;;;;;;;;;;;;;;;5019705;28;19920;-80
2022/06/18 16:27:44;;;;;;;;;;;;;;;;;;5020141;28;19920;-79
2022/06/18 16:30:10;;;;;;;;;;;;;;;;;;4981172;28;20327;-88
2022/06/18 16:32:35;;;;;;;;;;;;;;;;;;5029319;28;19917;-78
2022/06/18 16:35:00;;;;;;;;;;;;;;;;;;4997280;28;19920;-81
2022/06/18 16:37:26;;;;;;;;;;;;;;;;;;5014342;28;19917;-82
2022/06/18 16:39:51;;;;;;;;;;;;;;;;;;5011191;28;19964;-83
2022/06/18 16:42:17;;;;;;;;;;;;;;;;;;5020743;28;19917;-82
2022/06/18 16:44:42;;;;;;;;;;;;;;;;;;5018838;28;19917;-80
2022/06/18 16:47:07;;;;;;;;;;;;;;;;;;4994891;28;19913;-80
2022/06/18 16:49:33;;;;;;;;;;;;;;;;;;5004930;28;19914;-84
2022/06/18 16:51:59;;;;;;;;;;;;;;;;;;5028648;28;19913;-83
2022/06/18 16:54:24;;;;;;;;;;;;;;;;;;4999626;28;19914;-82
2022/06/18 16:56:49;;;;;;;;;;;;;;;;;;5011338;28;19914;-80
2022/06/18 16:59:24;;;;;;;;;;;;;;;;;;5003189;28;19914;-81
2022/06/18 17:01:50;;;;;;;;;;;;;;;;;;5031270;28;20375;-79
2022/06/18 17:04:16;;;;;;;;;;;;;;;;;;5019592;28;19913;-82
2022/06/18 17:06:41;;;;;;;;;;;;;;;;;;5012108;28;19920;-83
2022/06/18 17:09:07;;;;;;;;;;;;;;;;;;5020850;28;20007;-83
2022/06/18 17:11:32;;;;;;;;;;;;;;;;;;5005115;28;20008;-82
2022/06/18 17:13:58;;;;;;;;;;;;;;;;;;4996111;28;19945;-81
2022/06/18 17:16:23;;;;;;;;;;;;;;;;;;5014313;28;19914;-82
2022/06/18 17:18:48;;;;;;;;;;;;;;;;;;5009765;28;19959;-82
2022/06/18 17:21:14;;;;;;;;;;;;;;;;;;5007557;28;20384;-81
2022/06/18 17:23:39;;;;;;;;;;;;;;;;;;4979674;28;20344;-82
2022/06/18 17:31:41;;;;;;;;;;;;;;;;;;5677929;23;20492;-78
2022/06/18 17:34:07;;;;;;;;;;;;;;;;;;4974566;28;20287;-82
2022/06/18 17:36:33;;;;;;;;;;;;;;;;;;4944596;28;19914;-82
2022/06/18 17:38:58;;;;;;;;;;;;;;;;;;4985811;28;19941;-81
2022/06/18 17:41:24;;;;;;;;;;;;;;;;;;4984124;28;20513;-81
2022/06/18 17:43:49;;;;;;;;;;;;;;;;;;4937741;29;19914;-80
2022/06/18 17:46:15;;;;;;;;;;;;;;;;;;4954384;28;19918;-78
2022/06/18 17:48:51;;;;;;;;;;;;;;;;;;4977343;28;20384;-81
2022/06/18 17:51:17;;;;;;;;;;;;;;;;;;4987675;28;19944;-83
2022/06/18 17:53:42;;;;;;;;;;;;;;;;;;4948323;28;20053;-81
2022/06/18 17:56:09;;;;;;;;;;;;;;;;;;4977130;28;19914;-81
2022/06/18 17:58:37;;;;;;;;;;;;;;;;;;4957034;28;20373;-85
2022/06/18 18:01:02;;;;;;;;;;;;;;;;;;4954548;28;19917;-80
2022/06/18 18:03:28;;;;;;;;;;;;;;;;;;4964957;28;20281;-80
2022/06/18 18:05:53;;;;;;;;;;;;;;;;;;4932360;28;20376;-84
2022/06/18 18:08:19;;;;;;;;;;;;;;;;;;4969690;28;19910;-86
2022/06/18 18:10:44;;;;;;;;;;;;;;;;;;4956292;28;20371;-82
2022/06/18 18:13:18;;;;;;;;;;;;;;;;;;4952703;28;19914;-80